Time;durP1;ratioP1;P1;durP2;ratioP2;P2;SDS_P1;SDS_P2;PMS_P1;PMS_P2;Temp;Humidity;BMP_temperature;BMP_pressure;BME280_temperature;BME280_humidity;BME280_pressure;Samples;Min_cycle;Max_cycle;Signal;HPM_P1;HPM_P2
2022/12/11 00:01:51;;;;;;;;;;;;;;;;;;5044623;28;20015;-82
2022/12/11 00:04:16;;;;;;;;;;;;;;;;;;5042446;28;19968;-82
2022/12/11 00:06:42;;;;;;;;;;;;;;;;;;5044427;28;19932;-82
2022/12/11 00:09:08;;;;;;;;;;;;;;;;;;5029612;28;19929;-81
2022/12/11 00:11:34;;;;;;;;;;;;;;;;;;5042841;28;20020;-81
2022/12/11 00:14:00;;;;;;;;;;;;;;;;;;5028545;28;20391;-81
2022/12/11 00:16:26;;;;;;;;;;;;;;;;;;5035497;28;19926;-81
2022/12/11 00:18:52;;;;;;;;;;;;;;;;;;5042175;28;19964;-80
2022/12/11 00:21:18;;;;;;;;;;;;;;;;;;5042347;28;20299;-80
2022/12/11 00:23:44;;;;;;;;;;;;;;;;;;5044376;28;19926;-80
2022/12/11 00:26:10;;;;;;;;;;;;;;;;;;5030288;28;19926;-81
2022/12/11 00:28:36;;;;;;;;;;;;;;;;;;5024960;28;19926;-80
2022/12/11 00:31:01;;;;;;;;;;;;;;;;;;5046465;28;19932;-82
2022/12/11 00:33:27;;;;;;;;;;;;;;;;;;5034014;28;19933;-81
2022/12/11 00:35:53;;;;;;;;;;;;;;;;;;5042456;28;20406;-82
2022/12/11 00:38:19;;;;;;;;;;;;;;;;;;5044954;28;19988;-82
2022/12/11 00:40:45;;;;;;;;;;;;;;;;;;5042789;28;19976;-82
2022/12/11 00:43:11;;;;;;;;;;;;;;;;;;5041013;28;19925;-81
2022/12/11 00:45:37;;;;;;;;;;;;;;;;;;5028397;28;20291;-81
2022/12/11 00:48:03;;;;;;;;;;;;;;;;;;5044311;28;19959;-81
2022/12/11 00:50:29;;;;;;;;;;;;;;;;;;5044705;28;20019;-81
2022/12/11 00:52:55;;;;;;;;;;;;;;;;;;5044150;28;19948;-81
2022/12/11 00:55:21;;;;;;;;;;;;;;;;;;5042895;28;19929;-81
2022/12/11 00:57:46;;;;;;;;;;;;;;;;;;5044662;28;19925;-82
2022/12/11 01:00:12;;;;;;;;;;;;;;;;;;5025526;28;19932;-82
2022/12/11 01:02:38;;;;;;;;;;;;;;;;;;5042011;28;19929;-82
2022/12/11 01:05:04;;;;;;;;;;;;;;;;;;5043411;28;19925;-81
2022/12/11 01:07:30;;;;;;;;;;;;;;;;;;5043372;28;20299;-81
2022/12/11 01:12:41;;;;;;;;;;;;;;;;;;5057273;28;19931;-80
2022/12/11 01:15:06;;;;;;;;;;;;;;;;;;5054113;28;19925;-79
2022/12/11 01:17:32;;;;;;;;;;;;;;;;;;5052563;28;19925;-80
2022/12/11 01:19:58;;;;;;;;;;;;;;;;;;5048287;28;19936;-79
2022/12/11 01:22:24;;;;;;;;;;;;;;;;;;5036663;28;20433;-81
2022/12/11 01:24:50;;;;;;;;;;;;;;;;;;5043899;28;19925;-80
2022/12/11 01:27:16;;;;;;;;;;;;;;;;;;5044887;28;20067;-80
2022/12/11 01:29:42;;;;;;;;;;;;;;;;;;5035133;28;19925;-80
2022/12/11 01:32:08;;;;;;;;;;;;;;;;;;5040100;28;19951;-80
2022/12/11 01:34:34;;;;;;;;;;;;;;;;;;5042982;28;19925;-80
2022/12/11 01:37:00;;;;;;;;;;;;;;;;;;5039864;28;19925;-81
2022/12/11 01:39:26;;;;;;;;;;;;;;;;;;5040450;28;19936;-80
2022/12/11 01:41:52;;;;;;;;;;;;;;;;;;5036035;28;19932;-80
2022/12/11 01:44:18;;;;;;;;;;;;;;;;;;5043008;28;19925;-81
2022/12/11 01:46:43;;;;;;;;;;;;;;;;;;5033938;28;19953;-81
2022/12/11 01:49:09;;;;;;;;;;;;;;;;;;5023258;28;19925;-81
2022/12/11 01:51:35;;;;;;;;;;;;;;;;;;5035711;28;19933;-81
2022/12/11 01:54:01;;;;;;;;;;;;;;;;;;5031628;28;19996;-81
2022/12/11 01:56:27;;;;;;;;;;;;;;;;;;5029542;28;19948;-81
2022/12/11 01:58:53;;;;;;;;;;;;;;;;;;5038875;28;19933;-81
2022/12/11 02:01:19;;;;;;;;;;;;;;;;;;5042335;28;19925;-79
2022/12/11 02:03:45;;;;;;;;;;;;;;;;;;5039845;28;19921;-80
2022/12/11 02:06:11;;;;;;;;;;;;;;;;;;5047418;28;19925;-81
2022/12/11 02:08:37;;;;;;;;;;;;;;;;;;5048379;28;19952;-80
2022/12/11 02:11:03;;;;;;;;;;;;;;;;;;5048979;28;19932;-82
2022/12/11 02:13:28;;;;;;;;;;;;;;;;;;5031442;28;19996;-80
2022/12/11 02:15:54;;;;;;;;;;;;;;;;;;5047127;28;19925;-80
2022/12/11 02:18:20;;;;;;;;;;;;;;;;;;5041785;28;19936;-81
2022/12/11 02:20:46;;;;;;;;;;;;;;;;;;5040649;28;19925;-81
2022/12/11 02:23:12;;;;;;;;;;;;;;;;;;5041565;28;19931;-80
2022/12/11 02:25:38;;;;;;;;;;;;;;;;;;5042102;28;19939;-80
2022/12/11 02:28:05;;;;;;;;;;;;;;;;;;5036816;28;20306;-80
2022/12/11 02:30:30;;;;;;;;;;;;;;;;;;5041164;28;20023;-80
2022/12/11 02:32:56;;;;;;;;;;;;;;;;;;5030412;28;20364;-80
2022/12/11 02:35:22;;;;;;;;;;;;;;;;;;5046627;28;19953;-81
2022/12/11 02:37:48;;;;;;;;;;;;;;;;;;5048336;28;19940;-80
2022/12/11 02:40:14;;;;;;;;;;;;;;;;;;5056379;28;19935;-80
2022/12/11 02:42:40;;;;;;;;;;;;;;;;;;5056396;28;19925;-81
2022/12/11 02:45:06;;;;;;;;;;;;;;;;;;5051368;28;19926;-80
2022/12/11 02:47:32;;;;;;;;;;;;;;;;;;5026891;28;19967;-81
2022/12/11 02:49:58;;;;;;;;;;;;;;;;;;5042851;28;20011;-81
2022/12/11 02:52:24;;;;;;;;;;;;;;;;;;5047091;28;19932;-79
2022/12/11 02:54:50;;;;;;;;;;;;;;;;;;5052043;28;20012;-80
2022/12/11 02:57:16;;;;;;;;;;;;;;;;;;5050862;28;19925;-81
2022/12/11 02:59:41;;;;;;;;;;;;;;;;;;5039001;28;19932;-81
2022/12/11 03:02:07;;;;;;;;;;;;;;;;;;5045311;28;19938;-80
2022/12/11 03:04:33;;;;;;;;;;;;;;;;;;5054339;28;19924;-80
2022/12/11 03:07:00;;;;;;;;;;;;;;;;;;5052434;28;19925;-80
2022/12/11 03:09:26;;;;;;;;;;;;;;;;;;5056267;28;19925;-80
2022/12/11 03:11:52;;;;;;;;;;;;;;;;;;5053409;28;19964;-80
2022/12/11 03:14:18;;;;;;;;;;;;;;;;;;5028309;28;19975;-80
2022/12/11 03:16:43;;;;;;;;;;;;;;;;;;5036362;28;19952;-80
2022/12/11 03:19:11;;;;;;;;;;;;;;;;;;5041155;28;19948;-80
2022/12/11 03:21:37;;;;;;;;;;;;;;;;;;5035851;28;19926;-80
2022/12/11 03:24:03;;;;;;;;;;;;;;;;;;5052792;28;19971;-80
2022/12/11 03:26:29;;;;;;;;;;;;;;;;;;5059617;28;19935;-80
2022/12/11 03:28:55;;;;;;;;;;;;;;;;;;5056542;28;19932;-79
2022/12/11 03:31:21;;;;;;;;;;;;;;;;;;5048463;28;19925;-79
2022/12/11 03:33:46;;;;;;;;;;;;;;;;;;5049837;28;19989;-79
2022/12/11 03:36:12;;;;;;;;;;;;;;;;;;5048162;28;20379;-79
2022/12/11 03:38:38;;;;;;;;;;;;;;;;;;5028993;28;19922;-80
2022/12/11 03:41:04;;;;;;;;;;;;;;;;;;5037928;28;19925;-80
2022/12/11 03:43:30;;;;;;;;;;;;;;;;;;5046657;28;19925;-79
2022/12/11 03:45:56;;;;;;;;;;;;;;;;;;5048422;28;19932;-80
2022/12/11 03:48:22;;;;;;;;;;;;;;;;;;5044987;28;20375;-79
2022/12/11 03:50:48;;;;;;;;;;;;;;;;;;5035663;28;19968;-80
2022/12/11 03:53:15;;;;;;;;;;;;;;;;;;5031943;28;19926;-80
2022/12/11 03:55:41;;;;;;;;;;;;;;;;;;5044643;28;19925;-79
2022/12/11 03:58:06;;;;;;;;;;;;;;;;;;5054182;28;20006;-79
2022/12/11 04:00:32;;;;;;;;;;;;;;;;;;5054339;28;20001;-79
2022/12/11 04:03:14;;;;;;;;;;;;;;;;;;5050470;28;19929;-79
2022/12/11 04:05:40;;;;;;;;;;;;;;;;;;5049009;28;19981;-80
2022/12/11 04:08:06;;;;;;;;;;;;;;;;;;5044931;28;20279;-80
2022/12/11 04:10:32;;;;;;;;;;;;;;;;;;5047555;28;19925;-79
2022/12/11 04:12:58;;;;;;;;;;;;;;;;;;5041264;28;20028;-81
2022/12/11 04:15:24;;;;;;;;;;;;;;;;;;5030551;28;19936;-80
2022/12/11 04:26:04;;;;;;;;;;;;;;;;;;5046290;28;20048;-80
2022/12/11 04:28:30;;;;;;;;;;;;;;;;;;5039773;28;19925;-79
2022/12/11 04:30:55;;;;;;;;;;;;;;;;;;5045534;28;19932;-79
2022/12/11 04:33:21;;;;;;;;;;;;;;;;;;5040652;28;19929;-80
2022/12/11 04:35:47;;;;;;;;;;;;;;;;;;5047346;28;19925;-80
2022/12/11 04:38:13;;;;;;;;;;;;;;;;;;5049443;28;20013;-80
2022/12/11 04:40:39;;;;;;;;;;;;;;;;;;5050847;28;19929;-79
2022/12/11 04:43:05;;;;;;;;;;;;;;;;;;5050546;28;20014;-80
2022/12/11 04:45:31;;;;;;;;;;;;;;;;;;5037154;28;19964;-80
2022/12/11 04:47:58;;;;;;;;;;;;;;;;;;5034853;28;19925;-80
2022/12/11 04:50:24;;;;;;;;;;;;;;;;;;5053268;28;19925;-79
2022/12/11 04:52:50;;;;;;;;;;;;;;;;;;5047310;28;19932;-80
2022/12/11 04:55:16;;;;;;;;;;;;;;;;;;5038693;28;20290;-80
2022/12/11 04:57:42;;;;;;;;;;;;;;;;;;5032972;28;20016;-80
2022/12/11 05:00:08;;;;;;;;;;;;;;;;;;5046807;28;19929;-81
2022/12/11 05:02:34;;;;;;;;;;;;;;;;;;5047477;28;19926;-79
2022/12/11 05:05:00;;;;;;;;;;;;;;;;;;5050724;28;19925;-81
2022/12/11 05:07:26;;;;;;;;;;;;;;;;;;5051617;28;19972;-80
2022/12/11 05:09:52;;;;;;;;;;;;;;;;;;5051964;28;19929;-80
2022/12/11 05:12:18;;;;;;;;;;;;;;;;;;5048996;28;19991;-80
2022/12/11 05:14:44;;;;;;;;;;;;;;;;;;5050342;28;19964;-80
2022/12/11 05:17:10;;;;;;;;;;;;;;;;;;5047583;28;19926;-80
2022/12/11 05:19:36;;;;;;;;;;;;;;;;;;5050273;28;19936;-81
2022/12/11 05:22:01;;;;;;;;;;;;;;;;;;5048732;28;19933;-81
2022/12/11 05:24:27;;;;;;;;;;;;;;;;;;5025923;28;19982;-81
2022/12/11 05:26:53;;;;;;;;;;;;;;;;;;5041331;28;20032;-80
2022/12/11 05:29:19;;;;;;;;;;;;;;;;;;5040484;28;19951;-81
2022/12/11 05:31:45;;;;;;;;;;;;;;;;;;5040722;28;19925;-81
2022/12/11 05:34:11;;;;;;;;;;;;;;;;;;5039499;28;20477;-80
2022/12/11 05:36:37;;;;;;;;;;;;;;;;;;5041179;28;19957;-80
2022/12/11 05:39:03;;;;;;;;;;;;;;;;;;5035885;28;19925;-81
2022/12/11 05:41:29;;;;;;;;;;;;;;;;;;5035687;28;20006;-81
2022/12/11 05:43:55;;;;;;;;;;;;;;;;;;5043641;28;19932;-80
2022/12/11 05:46:21;;;;;;;;;;;;;;;;;;5033897;28;19925;-80
2022/12/11 05:48:47;;;;;;;;;;;;;;;;;;5038839;28;19925;-80
2022/12/11 05:51:13;;;;;;;;;;;;;;;;;;5040235;28;19925;-80
2022/12/11 05:53:39;;;;;;;;;;;;;;;;;;5040280;28;19929;-80
2022/12/11 05:56:05;;;;;;;;;;;;;;;;;;5040716;28;19925;-80
2022/12/11 05:58:31;;;;;;;;;;;;;;;;;;5034050;28;20425;-81
2022/12/11 06:00:57;;;;;;;;;;;;;;;;;;5040164;28;19925;-80
2022/12/11 06:03:22;;;;;;;;;;;;;;;;;;5034974;28;20016;-80
2022/12/11 06:05:48;;;;;;;;;;;;;;;;;;5035672;28;19929;-80
2022/12/11 06:08:14;;;;;;;;;;;;;;;;;;5036886;28;19925;-80
2022/12/11 06:10:40;;;;;;;;;;;;;;;;;;5022840;28;19932;-80
2022/12/11 06:13:06;;;;;;;;;;;;;;;;;;5034088;28;20008;-80
2022/12/11 06:15:32;;;;;;;;;;;;;;;;;;5035660;28;20027;-81
2022/12/11 06:17:58;;;;;;;;;;;;;;;;;;5036718;28;19969;-81
2022/12/11 06:20:24;;;;;;;;;;;;;;;;;;5038408;28;19980;-81
2022/12/11 06:22:50;;;;;;;;;;;;;;;;;;5037036;28;19925;-80
2022/12/11 06:25:16;;;;;;;;;;;;;;;;;;5019521;28;19932;-81
2022/12/11 06:27:42;;;;;;;;;;;;;;;;;;5039408;28;20295;-80
2022/12/11 06:30:08;;;;;;;;;;;;;;;;;;5039041;28;19936;-80
2022/12/11 06:32:33;;;;;;;;;;;;;;;;;;5043481;28;19957;-82
2022/12/11 06:34:59;;;;;;;;;;;;;;;;;;5049577;28;19920;-80
2022/12/11 06:37:25;;;;;;;;;;;;;;;;;;5051417;28;19913;-81
2022/12/11 06:39:51;;;;;;;;;;;;;;;;;;5050315;28;19980;-81
2022/12/11 06:42:17;;;;;;;;;;;;;;;;;;5033419;28;19936;-81
2022/12/11 06:44:43;;;;;;;;;;;;;;;;;;5054660;28;19956;-81
2022/12/11 06:47:09;;;;;;;;;;;;;;;;;;5047567;28;19925;-81
2022/12/11 06:49:35;;;;;;;;;;;;;;;;;;5052557;28;19909;-81
2022/12/11 06:52:01;;;;;;;;;;;;;;;;;;5032150;28;19960;-81
2022/12/11 06:54:27;;;;;;;;;;;;;;;;;;5048728;28;19936;-81
2022/12/11 06:56:53;;;;;;;;;;;;;;;;;;5048731;28;19949;-81
2022/12/11 06:59:19;;;;;;;;;;;;;;;;;;5038047;28;19922;-81
2022/12/11 07:01:45;;;;;;;;;;;;;;;;;;5045934;28;19925;-81
2022/12/11 07:04:10;;;;;;;;;;;;;;;;;;5040249;28;19933;-82
2022/12/11 07:06:36;;;;;;;;;;;;;;;;;;5039604;28;19925;-81
2022/12/11 07:09:02;;;;;;;;;;;;;;;;;;5038383;28;19933;-80
2022/12/11 07:11:28;;;;;;;;;;;;;;;;;;5038606;28;20012;-80
2022/12/11 07:13:54;;;;;;;;;;;;;;;;;;5018370;28;20395;-81
2022/12/11 07:16:20;;;;;;;;;;;;;;;;;;5018774;28;19968;-81
2022/12/11 07:18:46;;;;;;;;;;;;;;;;;;5038441;28;19971;-81
2022/12/11 07:21:12;;;;;;;;;;;;;;;;;;5038111;28;20037;-80
2022/12/11 07:23:38;;;;;;;;;;;;;;;;;;5042694;28;20283;-80
2022/12/11 07:26:04;;;;;;;;;;;;;;;;;;5044071;28;20371;-80
2022/12/11 07:28:30;;;;;;;;;;;;;;;;;;5041627;28;19925;-81
2022/12/11 07:30:56;;;;;;;;;;;;;;;;;;5041590;28;19932;-80
2022/12/11 07:33:21;;;;;;;;;;;;;;;;;;5042178;28;19925;-80
2022/12/11 07:35:47;;;;;;;;;;;;;;;;;;5042927;28;19925;-82
2022/12/11 07:38:13;;;;;;;;;;;;;;;;;;5036078;28;19928;-80
2022/12/11 07:40:39;;;;;;;;;;;;;;;;;;5032036;28;20068;-81
2022/12/11 07:43:05;;;;;;;;;;;;;;;;;;5035236;28;20029;-81
2022/12/11 07:45:31;;;;;;;;;;;;;;;;;;5035139;28;19932;-81
2022/12/11 07:47:58;;;;;;;;;;;;;;;;;;5045305;28;20447;-81
2022/12/11 07:50:23;;;;;;;;;;;;;;;;;;5048673;28;20318;-82
2022/12/11 07:52:49;;;;;;;;;;;;;;;;;;5030826;28;19925;-82
2022/12/11 07:55:15;;;;;;;;;;;;;;;;;;5046137;28;19932;-81
2022/12/11 07:57:41;;;;;;;;;;;;;;;;;;5044788;28;19933;-82
2022/12/11 08:00:07;;;;;;;;;;;;;;;;;;5043410;28;19925;-82
2022/12/11 08:02:33;;;;;;;;;;;;;;;;;;5041770;28;19933;-84
2022/12/11 08:04:59;;;;;;;;;;;;;;;;;;5031686;28;19937;-81
2022/12/11 08:07:25;;;;;;;;;;;;;;;;;;5040843;28;19925;-81
2022/12/11 08:09:51;;;;;;;;;;;;;;;;;;5038430;28;20379;-81
2022/12/11 08:12:17;;;;;;;;;;;;;;;;;;5039991;28;19932;-81
2022/12/11 08:14:43;;;;;;;;;;;;;;;;;;5040420;28;20294;-81
2022/12/11 08:17:09;;;;;;;;;;;;;;;;;;5040864;28;19929;-81
2022/12/11 08:19:34;;;;;;;;;;;;;;;;;;5040800;28;20355;-82
2022/12/11 08:22:00;;;;;;;;;;;;;;;;;;5041645;28;19972;-82
2022/12/11 08:24:27;;;;;;;;;;;;;;;;;;5040993;28;19963;-82
2022/12/11 08:26:53;;;;;;;;;;;;;;;;;;5039910;28;19925;-81
2022/12/11 08:29:19;;;;;;;;;;;;;;;;;;5040131;28;19932;-81
2022/12/11 08:31:45;;;;;;;;;;;;;;;;;;5030601;28;19944;-82
2022/12/11 08:34:12;;;;;;;;;;;;;;;;;;5036306;28;19925;-82
2022/12/11 08:36:38;;;;;;;;;;;;;;;;;;5038364;28;20387;-82
2022/12/11 08:39:04;;;;;;;;;;;;;;;;;;5040062;28;19940;-83
2022/12/11 08:41:30;;;;;;;;;;;;;;;;;;5041052;28;19971;-83
2022/12/11 08:43:56;;;;;;;;;;;;;;;;;;5040584;28;19925;-82
2022/12/11 08:46:22;;;;;;;;;;;;;;;;;;5036196;28;19925;-81
2022/12/11 08:48:48;;;;;;;;;;;;;;;;;;5032704;28;19929;-82
2022/12/11 08:51:14;;;;;;;;;;;;;;;;;;5040330;28;20435;-82
2022/12/11 08:53:40;;;;;;;;;;;;;;;;;;5047266;28;19976;-80
2022/12/11 08:56:06;;;;;;;;;;;;;;;;;;5041863;28;19968;-83
2022/12/11 08:58:32;;;;;;;;;;;;;;;;;;5039217;28;19925;-82
2022/12/11 09:00:58;;;;;;;;;;;;;;;;;;5040285;28;19992;-82
2022/12/11 09:03:24;;;;;;;;;;;;;;;;;;5047651;28;19926;-81
2022/12/11 09:05:50;;;;;;;;;;;;;;;;;;5035511;28;19926;-81
2022/12/11 09:08:16;;;;;;;;;;;;;;;;;;5041081;28;20024;-82
2022/12/11 09:10:41;;;;;;;;;;;;;;;;;;5041677;28;19929;-81
2022/12/11 09:13:07;;;;;;;;;;;;;;;;;;5044290;28;19947;-82
2022/12/11 09:15:37;;;;;;;;;;;;;;;;;;5044834;28;19925;-81
2022/12/11 09:18:04;;;;;;;;;;;;;;;;;;5043620;28;19962;-81
2022/12/11 09:20:30;;;;;;;;;;;;;;;;;;5050641;28;19956;-82
2022/12/11 09:22:56;;;;;;;;;;;;;;;;;;5057244;28;19951;-82
2022/12/11 09:25:22;;;;;;;;;;;;;;;;;;5053088;28;19935;-82
2022/12/11 09:27:47;;;;;;;;;;;;;;;;;;5046344;28;19928;-82
2022/12/11 09:30:14;;;;;;;;;;;;;;;;;;5022199;28;19925;-82
2022/12/11 09:32:40;;;;;;;;;;;;;;;;;;5040182;28;19925;-82
2022/12/11 09:37:52;;;;;;;;;;;;;;;;;;5012289;28;19967;-82
2022/12/11 09:40:18;;;;;;;;;;;;;;;;;;5032773;28;20463;-84
2022/12/11 09:42:44;;;;;;;;;;;;;;;;;;5033353;28;20006;-82
2022/12/11 09:45:10;;;;;;;;;;;;;;;;;;5028038;28;20391;-82
2022/12/11 09:47:36;;;;;;;;;;;;;;;;;;5002502;28;19929;-83
2022/12/11 09:50:18;;;;;;;;;;;;;;;;;;5028505;28;19932;-84
2022/12/11 09:52:47;;;;;;;;;;;;;;;;;;5038503;28;19979;-83
2022/12/11 09:55:13;;;;;;;;;;;;;;;;;;5038209;28;20376;-83
2022/12/11 09:57:40;;;;;;;;;;;;;;;;;;5024078;28;19959;-84
2022/12/11 10:00:22;;;;;;;;;;;;;;;;;;5039078;28;19937;-83
2022/12/11 10:03:14;;;;;;;;;;;;;;;;;;5038874;28;19936;-83
2022/12/11 10:05:46;;;;;;;;;;;;;;;;;;5013467;28;19925;-83
2022/12/11 10:08:33;;;;;;;;;;;;;;;;;;5033982;28;19925;-84
2022/12/11 10:10:59;;;;;;;;;;;;;;;;;;5028758;28;20000;-83
2022/12/11 10:13:44;;;;;;;;;;;;;;;;;;5048950;28;20272;-84
2022/12/11 10:16:11;;;;;;;;;;;;;;;;;;5032099;28;20302;-83
2022/12/11 10:18:42;;;;;;;;;;;;;;;;;;5043033;28;19952;-83
2022/12/11 10:21:08;;;;;;;;;;;;;;;;;;5025998;28;19929;-84
2022/12/11 10:23:34;;;;;;;;;;;;;;;;;;5040618;28;19925;-84
2022/12/11 10:26:01;;;;;;;;;;;;;;;;;;5038411;28;19925;-84
2022/12/11 10:28:27;;;;;;;;;;;;;;;;;;5039645;28;20287;-84
2022/12/11 10:30:53;;;;;;;;;;;;;;;;;;5040915;28;19932;-84
2022/12/11 10:33:20;;;;;;;;;;;;;;;;;;5040830;28;19925;-82
2022/12/11 10:35:46;;;;;;;;;;;;;;;;;;5042876;28;19925;-83
2022/12/11 10:38:12;;;;;;;;;;;;;;;;;;5043593;28;19951;-84
2022/12/11 10:40:38;;;;;;;;;;;;;;;;;;5053957;28;19925;-84
2022/12/11 10:43:04;;;;;;;;;;;;;;;;;;5049449;28;19925;-84
2022/12/11 10:45:30;;;;;;;;;;;;;;;;;;5047585;28;19960;-84
2022/12/11 10:47:56;;;;;;;;;;;;;;;;;;5045839;28;19925;-84
2022/12/11 10:50:22;;;;;;;;;;;;;;;;;;5049576;28;19925;-82
2022/12/11 10:52:48;;;;;;;;;;;;;;;;;;5043088;28;19925;-82
2022/12/11 10:55:14;;;;;;;;;;;;;;;;;;5046348;28;19968;-83
2022/12/11 10:57:40;;;;;;;;;;;;;;;;;;5039388;28;19921;-83
2022/12/11 11:00:06;;;;;;;;;;;;;;;;;;5044475;28;19925;-84
2022/12/11 11:02:32;;;;;;;;;;;;;;;;;;5048699;28;19980;-84
2022/12/11 11:04:58;;;;;;;;;;;;;;;;;;5050640;28;20401;-83
2022/12/11 11:07:24;;;;;;;;;;;;;;;;;;5033783;28;19943;-84
2022/12/11 11:09:50;;;;;;;;;;;;;;;;;;5036130;28;19933;-84
2022/12/11 11:12:16;;;;;;;;;;;;;;;;;;5041571;28;19956;-84
2022/12/11 11:14:42;;;;;;;;;;;;;;;;;;5056854;28;20386;-84
2022/12/11 11:17:08;;;;;;;;;;;;;;;;;;5050949;28;20379;-85
2022/12/11 11:19:34;;;;;;;;;;;;;;;;;;5026444;28;19980;-83
2022/12/11 11:22:01;;;;;;;;;;;;;;;;;;5040709;28;19925;-85
2022/12/11 11:24:27;;;;;;;;;;;;;;;;;;5042586;28;19933;-85
2022/12/11 11:26:53;;;;;;;;;;;;;;;;;;5022836;28;19978;-85
2022/12/11 11:29:24;;;;;;;;;;;;;;;;;;5039942;28;19956;-84
2022/12/11 11:31:56;;;;;;;;;;;;;;;;;;5038224;28;20290;-84
2022/12/11 11:34:24;;;;;;;;;;;;;;;;;;5022647;28;19925;-84
2022/12/11 11:36:50;;;;;;;;;;;;;;;;;;5041154;28;19935;-83
2022/12/11 11:39:16;;;;;;;;;;;;;;;;;;5052778;28;19972;-83
2022/12/11 11:41:45;;;;;;;;;;;;;;;;;;5050945;28;20214;-82
2022/12/11 11:44:11;;;;;;;;;;;;;;;;;;5043026;28;19981;-83
2022/12/11 11:46:37;;;;;;;;;;;;;;;;;;5036595;28;19932;-83
2022/12/11 11:49:03;;;;;;;;;;;;;;;;;;5041588;28;19925;-82
2022/12/11 11:51:29;;;;;;;;;;;;;;;;;;5068016;28;19925;-82
2022/12/11 11:53:55;;;;;;;;;;;;;;;;;;5051395;28;19925;-82
2022/12/11 11:56:21;;;;;;;;;;;;;;;;;;5052285;28;19965;-83
2022/12/11 11:58:46;;;;;;;;;;;;;;;;;;5035652;28;19936;-83
2022/12/11 12:01:12;;;;;;;;;;;;;;;;;;5051461;28;19992;-82
2022/12/11 12:03:38;;;;;;;;;;;;;;;;;;5053187;28;20018;-82
2022/12/11 12:06:04;;;;;;;;;;;;;;;;;;5057997;28;19932;-82
2022/12/11 12:08:30;;;;;;;;;;;;;;;;;;5055433;28;19920;-81
2022/12/11 12:10:56;;;;;;;;;;;;;;;;;;5056482;28;19976;-81
2022/12/11 12:13:25;;;;;;;;;;;;;;;;;;5056911;28;19943;-83
2022/12/11 12:15:51;;;;;;;;;;;;;;;;;;5039527;28;19925;-81
2022/12/11 12:18:17;;;;;;;;;;;;;;;;;;5058458;28;19925;-81
2022/12/11 12:20:43;;;;;;;;;;;;;;;;;;5048948;28;19971;-82
2022/12/11 12:23:09;;;;;;;;;;;;;;;;;;5048272;28;19929;-82
2022/12/11 12:25:35;;;;;;;;;;;;;;;;;;5041476;28;20020;-82
2022/12/11 12:28:01;;;;;;;;;;;;;;;;;;5044349;28;20015;-81
2022/12/11 12:30:27;;;;;;;;;;;;;;;;;;5044932;28;19925;-81
2022/12/11 12:32:53;;;;;;;;;;;;;;;;;;5050817;28;19925;-83
2022/12/11 12:35:19;;;;;;;;;;;;;;;;;;5036677;28;19937;-81
2022/12/11 12:37:45;;;;;;;;;;;;;;;;;;5020330;28;19932;-82
2022/12/11 12:40:12;;;;;;;;;;;;;;;;;;5057052;28;19924;-82
2022/12/11 12:42:38;;;;;;;;;;;;;;;;;;5037903;28;19924;-82
2022/12/11 12:45:04;;;;;;;;;;;;;;;;;;5019885;28;19932;-84
2022/12/11 12:47:32;;;;;;;;;;;;;;;;;;5037484;28;20461;-82
2022/12/11 12:49:59;;;;;;;;;;;;;;;;;;5039928;28;19936;-82
2022/12/11 12:52:24;;;;;;;;;;;;;;;;;;5031693;28;19925;-82
2022/12/11 12:57:52;;;;;;;;;;;;;;;;;;5002617;28;19944;-81
2022/12/11 13:00:18;;;;;;;;;;;;;;;;;;5039499;28;19987;-84
2022/12/11 13:02:44;;;;;;;;;;;;;;;;;;5046286;28;19936;-81
2022/12/11 13:05:10;;;;;;;;;;;;;;;;;;5043033;28;19976;-81
2022/12/11 13:07:36;;;;;;;;;;;;;;;;;;5054253;28;19933;-81
2022/12/11 13:10:02;;;;;;;;;;;;;;;;;;5051610;28;19913;-82
2022/12/11 13:12:28;;;;;;;;;;;;;;;;;;5048203;28;19913;-81
2022/12/11 13:14:54;;;;;;;;;;;;;;;;;;5050629;28;20035;-81
2022/12/11 13:17:20;;;;;;;;;;;;;;;;;;5035239;28;19925;-80
2022/12/11 13:19:46;;;;;;;;;;;;;;;;;;5020685;28;19976;-80
2022/12/11 13:22:13;;;;;;;;;;;;;;;;;;5016344;28;20019;-80
2022/12/11 13:24:39;;;;;;;;;;;;;;;;;;5037856;28;19925;-80
2022/12/11 13:27:04;;;;;;;;;;;;;;;;;;5030698;28;20357;-80
2022/12/11 13:29:30;;;;;;;;;;;;;;;;;;5021107;28;19972;-79
2022/12/11 13:31:56;;;;;;;;;;;;;;;;;;5023122;28;19933;-81
2022/12/11 13:34:22;;;;;;;;;;;;;;;;;;5036552;28;19926;-80
2022/12/11 13:36:48;;;;;;;;;;;;;;;;;;5038842;28;19929;-80
2022/12/11 13:39:14;;;;;;;;;;;;;;;;;;5034149;28;20008;-80
2022/12/11 13:41:40;;;;;;;;;;;;;;;;;;5030244;28;19972;-80
2022/12/11 13:44:06;;;;;;;;;;;;;;;;;;5038101;28;19925;-80
2022/12/11 13:46:32;;;;;;;;;;;;;;;;;;5032690;28;20393;-80
2022/12/11 13:48:59;;;;;;;;;;;;;;;;;;5031469;28;19925;-81
2022/12/11 13:51:25;;;;;;;;;;;;;;;;;;5039553;28;19932;-82
2022/12/11 13:53:51;;;;;;;;;;;;;;;;;;5039130;28;19925;-81
2022/12/11 13:56:17;;;;;;;;;;;;;;;;;;5038675;28;20387;-81
2022/12/11 13:58:43;;;;;;;;;;;;;;;;;;5036506;28;19925;-79
2022/12/11 14:01:12;;;;;;;;;;;;;;;;;;5036782;28;20482;-79
2022/12/11 14:03:38;;;;;;;;;;;;;;;;;;5037910;28;19925;-79
2022/12/11 14:06:04;;;;;;;;;;;;;;;;;;5037189;28;20248;-79
2022/12/11 14:08:30;;;;;;;;;;;;;;;;;;5036557;28;19929;-79
2022/12/11 14:10:55;;;;;;;;;;;;;;;;;;5019451;28;19925;-79
2022/12/11 14:13:21;;;;;;;;;;;;;;;;;;5031601;28;19972;-79
2022/12/11 14:15:47;;;;;;;;;;;;;;;;;;5023577;28;20035;-79
2022/12/11 14:18:13;;;;;;;;;;;;;;;;;;5035067;28;19926;-79
2022/12/11 14:20:39;;;;;;;;;;;;;;;;;;5037435;28;19929;-80
2022/12/11 14:23:05;;;;;;;;;;;;;;;;;;5034539;28;19964;-79
2022/12/11 14:25:31;;;;;;;;;;;;;;;;;;5034807;28;19987;-79
2022/12/11 14:27:57;;;;;;;;;;;;;;;;;;5040159;28;19932;-79
2022/12/11 14:30:23;;;;;;;;;;;;;;;;;;5038781;28;19925;-80
2022/12/11 14:32:49;;;;;;;;;;;;;;;;;;5043308;28;19936;-80
2022/12/11 14:35:15;;;;;;;;;;;;;;;;;;5056053;28;19999;-81
2022/12/11 14:37:41;;;;;;;;;;;;;;;;;;5043624;28;19981;-81
2022/12/11 14:40:07;;;;;;;;;;;;;;;;;;5044124;28;19979;-80
2022/12/11 14:42:33;;;;;;;;;;;;;;;;;;5034359;28;19929;-80
2022/12/11 14:44:59;;;;;;;;;;;;;;;;;;5031586;28;19933;-80
2022/12/11 14:47:25;;;;;;;;;;;;;;;;;;5043968;28;19980;-81
2022/12/11 14:49:51;;;;;;;;;;;;;;;;;;5038512;28;19941;-80
2022/12/11 14:52:17;;;;;;;;;;;;;;;;;;5038970;28;20024;-80
2022/12/11 14:54:43;;;;;;;;;;;;;;;;;;5038766;28;19928;-80
2022/12/11 14:57:09;;;;;;;;;;;;;;;;;;5021821;28;19940;-80
2022/12/11 14:59:35;;;;;;;;;;;;;;;;;;5042889;28;19925;-80
2022/12/11 15:02:01;;;;;;;;;;;;;;;;;;5052214;28;19924;-80
2022/12/11 15:04:27;;;;;;;;;;;;;;;;;;5046271;28;19936;-80
2022/12/11 15:06:54;;;;;;;;;;;;;;;;;;5051526;28;19981;-79
2022/12/11 15:09:20;;;;;;;;;;;;;;;;;;5045294;28;19925;-79
2022/12/11 15:11:46;;;;;;;;;;;;;;;;;;5040220;28;19932;-79
2022/12/11 15:14:12;;;;;;;;;;;;;;;;;;5033652;28;20398;-79
2022/12/11 15:16:38;;;;;;;;;;;;;;;;;;5033763;28;20379;-79
2022/12/11 15:19:04;;;;;;;;;;;;;;;;;;5033409;28;19931;-80
2022/12/11 15:21:30;;;;;;;;;;;;;;;;;;5035333;28;19925;-79
2022/12/11 15:23:56;;;;;;;;;;;;;;;;;;5034053;28;19925;-80
2022/12/11 15:26:22;;;;;;;;;;;;;;;;;;5034441;28;19933;-78
2022/12/11 15:28:48;;;;;;;;;;;;;;;;;;5035389;28;19983;-80
2022/12/11 15:31:13;;;;;;;;;;;;;;;;;;5036052;28;19925;-81
2022/12/11 15:33:39;;;;;;;;;;;;;;;;;;5039140;28;20028;-81
2022/12/11 15:36:05;;;;;;;;;;;;;;;;;;5038592;28;19932;-80
2022/12/11 15:38:32;;;;;;;;;;;;;;;;;;5019768;28;19959;-80
2022/12/11 15:40:58;;;;;;;;;;;;;;;;;;5034379;28;19948;-81
2022/12/11 15:43:23;;;;;;;;;;;;;;;;;;5042078;28;20378;-79
2022/12/11 15:45:49;;;;;;;;;;;;;;;;;;5038247;28;19929;-81
2022/12/11 15:48:15;;;;;;;;;;;;;;;;;;5041313;28;20423;-81
2022/12/11 15:50:41;;;;;;;;;;;;;;;;;;5033037;28;20371;-80
2022/12/11 15:53:07;;;;;;;;;;;;;;;;;;5041867;28;20375;-79
2022/12/11 15:55:33;;;;;;;;;;;;;;;;;;5038875;28;19925;-80
2022/12/11 15:57:59;;;;;;;;;;;;;;;;;;5030523;28;20018;-80
2022/12/11 16:00:29;;;;;;;;;;;;;;;;;;5038794;28;19925;-79
2022/12/11 16:02:55;;;;;;;;;;;;;;;;;;5039026;28;19925;-79
2022/12/11 16:05:21;;;;;;;;;;;;;;;;;;5038003;28;19999;-80
2022/12/11 16:07:47;;;;;;;;;;;;;;;;;;5038695;28;19925;-80
2022/12/11 16:10:13;;;;;;;;;;;;;;;;;;5038524;28;19925;-80
2022/12/11 16:12:39;;;;;;;;;;;;;;;;;;5021323;28;19967;-79
2022/12/11 16:15:05;;;;;;;;;;;;;;;;;;5040117;28;19955;-81
2022/12/11 16:17:31;;;;;;;;;;;;;;;;;;5041919;28;19925;-82
2022/12/11 16:19:57;;;;;;;;;;;;;;;;;;5043224;28;19925;-81
2022/12/11 16:22:23;;;;;;;;;;;;;;;;;;5024799;28;19925;-81
2022/12/11 16:24:49;;;;;;;;;;;;;;;;;;5038206;28;20361;-81
2022/12/11 16:27:15;;;;;;;;;;;;;;;;;;5035069;28;19933;-79
2022/12/11 16:29:41;;;;;;;;;;;;;;;;;;5040558;28;19925;-79
2022/12/11 16:32:07;;;;;;;;;;;;;;;;;;5032346;28;19967;-79
2022/12/11 16:34:33;;;;;;;;;;;;;;;;;;5029543;28;20024;-80
2022/12/11 16:36:59;;;;;;;;;;;;;;;;;;5015359;28;19996;-79
2022/12/11 16:39:25;;;;;;;;;;;;;;;;;;5029879;28;19925;-80
2022/12/11 16:41:51;;;;;;;;;;;;;;;;;;5040131;28;20397;-79
2022/12/11 16:44:17;;;;;;;;;;;;;;;;;;5042723;28;19967;-80
2022/12/11 16:46:43;;;;;;;;;;;;;;;;;;5039289;28;19968;-80
2022/12/11 16:49:09;;;;;;;;;;;;;;;;;;5041529;28;19932;-81
2022/12/11 16:51:35;;;;;;;;;;;;;;;;;;5047023;28;19925;-80
2022/12/11 16:54:01;;;;;;;;;;;;;;;;;;5012665;28;20016;-81
2022/12/11 16:56:27;;;;;;;;;;;;;;;;;;5044614;28;19925;-81